createdAt,value
2022-11-06T00:00:35.260Z,2.13
2022-11-06T00:01:37.483Z,2.22
2022-11-06T00:02:40.336Z,2.16
2022-11-06T00:03:43.893Z,2.04
2022-11-06T00:04:49.412Z,2.03
2022-11-06T00:06:10.133Z,2.12
2022-11-06T00:07:12.097Z,2.10
2022-11-06T00:08:16.169Z,2.17
2022-11-06T00:09:22.045Z,2.01
2022-11-06T00:10:27.134Z,2.08
2022-11-06T00:11:32.948Z,2.09
2022-11-06T00:12:38.371Z,2.16
2022-11-06T00:13:43.610Z,2.13
2022-11-06T00:14:45.546Z,2.01
2022-11-06T00:15:47.565Z,1.98
2022-11-06T00:16:50.904Z,1.98
2022-11-06T00:17:53.135Z,1.95
2022-11-06T00:18:56.218Z,2.06
2022-11-06T00:19:58.493Z,1.99
2022-11-06T00:21:07.391Z,1.75
2022-11-06T00:22:09.357Z,1.97
2022-11-06T00:23:11.626Z,2.02
2022-11-06T00:24:15.690Z,1.90
2022-11-06T00:25:23.826Z,2.02
2022-11-06T00:26:28.443Z,2.07
2022-11-06T00:27:31.010Z,2.10
2022-11-06T00:28:34.774Z,2.16
2022-11-06T00:29:39.212Z,2.08
2022-11-06T00:30:42.540Z,1.83
2022-11-06T00:31:45.706Z,1.79
2022-11-06T00:32:48.183Z,1.86
2022-11-06T00:33:51.106Z,1.67
2022-11-06T00:34:53.111Z,1.70
2022-11-06T00:35:57.772Z,1.74
2022-11-06T00:37:02.888Z,1.74
2022-11-06T00:38:06.658Z,1.69
2022-11-06T00:39:11.331Z,1.80
2022-11-06T00:40:15.378Z,1.78
2022-11-06T00:41:27.815Z,1.82
2022-11-06T00:42:30.025Z,1.70
2022-11-06T00:43:37.184Z,1.81
2022-11-06T00:44:39.117Z,1.97
2022-11-06T00:45:41.329Z,1.85
2022-11-06T00:46:43.947Z,1.79
2022-11-06T00:47:45.986Z,1.79
2022-11-06T00:48:50.843Z,1.79
2022-11-06T00:49:52.842Z,1.84
2022-11-06T00:50:55.457Z,2.02
2022-11-06T00:52:04.024Z,1.97
2022-11-06T00:53:06.139Z,1.78
2022-11-06T00:54:13.524Z,1.78
2022-11-06T00:55:15.637Z,1.71
2022-11-06T00:56:19.481Z,1.78
2022-11-06T00:57:23.651Z,1.63
2022-11-06T00:58:25.599Z,1.82
2022-11-06T00:59:27.645Z,1.94
2022-11-06T01:00:29.866Z,1.93
2022-11-06T01:01:37.568Z,1.95
2022-11-06T01:02:39.976Z,2.02
2022-11-06T01:03:44.028Z,2.08
2022-11-06T01:04:46.138Z,1.95
2022-11-06T01:05:48.794Z,1.87
2022-11-06T01:06:56.949Z,1.75
2022-11-06T01:07:58.944Z,1.83
2022-11-06T01:09:01.623Z,1.84
2022-11-06T01:10:04.569Z,1.68
2022-11-06T01:11:15.695Z,1.83
2022-11-06T01:12:17.719Z,1.87
2022-11-06T01:13:20.313Z,1.93
2022-11-06T01:14:23.762Z,2.06
2022-11-06T01:15:28.720Z,1.97
2022-11-06T01:16:31.388Z,1.90
2022-11-06T01:17:35.421Z,1.92
2022-11-06T01:18:38.373Z,1.94
2022-11-06T01:19:41.097Z,1.65
2022-11-06T01:20:43.193Z,1.86
2022-11-06T01:21:49.669Z,1.92
2022-11-06T01:22:52.153Z,1.88
2022-11-06T01:24:00.823Z,1.78
2022-11-06T01:25:03.204Z,1.75
2022-11-06T01:26:08.050Z,1.77
2022-11-06T01:27:27.367Z,1.67
2022-11-06T01:28:29.823Z,1.88
2022-11-06T01:29:37.727Z,1.67
2022-11-06T01:30:43.217Z,1.91
2022-11-06T01:31:45.687Z,1.92
2022-11-06T01:32:52.777Z,1.76
2022-11-06T01:33:57.315Z,1.89
2022-11-06T01:35:00.740Z,1.94
2022-11-06T01:36:04.305Z,1.89
2022-11-06T01:37:10.395Z,1.94
2022-11-06T01:38:15.398Z,1.77
2022-11-06T01:39:17.529Z,1.92
2022-11-06T01:40:19.506Z,1.98
2022-11-06T01:41:28.109Z,1.95
2022-11-06T01:42:30.522Z,2.02
2022-11-06T01:44:01.666Z,1.96
2022-11-06T01:45:39.285Z,1.94
2022-11-06T01:46:41.295Z,2.08
2022-11-06T01:47:44.902Z,2.02
2022-11-06T01:48:58.318Z,2.11
2022-11-06T01:50:05.467Z,2.13
2022-11-06T01:51:11.778Z,2.10
2022-11-06T01:52:17.652Z,2.11
2022-11-06T01:53:20.264Z,2.19
2022-11-06T01:54:25.693Z,2.07
2022-11-06T01:55:36.045Z,2.14
2022-11-06T01:56:43.086Z,2.06
2022-11-06T01:57:45.829Z,2.08
2022-11-06T01:58:51.118Z,2.06
2022-11-06T01:59:55.285Z,1.95
2022-11-06T02:00:59.798Z,1.90
2022-11-06T02:02:02.717Z,1.91
2022-11-06T02:03:05.025Z,1.85
2022-11-06T02:04:33.028Z,1.83
2022-11-06T02:05:36.792Z,1.95
2022-11-06T02:06:39.062Z,2.03
2022-11-06T02:07:46.570Z,2.06
2022-11-06T02:08:51.392Z,1.99
2022-11-06T02:09:53.409Z,2.00
2022-11-06T02:10:56.789Z,1.94
2022-11-06T02:12:20.622Z,1.85
2022-11-06T02:13:26.463Z,1.97
2022-11-06T02:14:39.731Z,1.74
2022-11-06T02:15:57.220Z,1.81
2022-11-06T02:17:09.069Z,1.97
2022-11-06T02:18:49.608Z,1.92
2022-11-06T02:19:51.589Z,1.72
2022-11-06T02:21:37.038Z,1.70
2022-11-06T02:22:50.834Z,1.69
2022-11-06T02:24:23.387Z,1.67
2022-11-06T02:26:17.030Z,1.60
2022-11-06T02:27:24.842Z,1.52
2022-11-06T02:28:39.762Z,1.59
2022-11-06T02:30:05.534Z,1.75
2022-11-06T02:31:13.561Z,1.72
2022-11-06T02:32:53.340Z,1.65
2022-11-06T02:34:00.412Z,1.83
2022-11-06T02:35:11.145Z,1.79
2022-11-06T02:36:19.285Z,1.83
2022-11-06T02:37:28.543Z,1.80
2022-11-06T02:39:03.394Z,1.71
2022-11-06T02:40:09.761Z,1.83
2022-11-06T02:41:18.294Z,1.90
2022-11-06T02:42:22.987Z,1.88
2022-11-06T02:43:35.741Z,1.66
2022-11-06T02:44:47.991Z,1.92
2022-11-06T02:46:24.245Z,1.66
2022-11-06T02:47:33.022Z,1.63
2022-11-06T02:48:41.462Z,1.55
2022-11-06T02:49:53.589Z,1.26
2022-11-06T02:50:59.330Z,1.49
2022-11-06T02:52:08.602Z,1.36
2022-11-06T02:53:24.373Z,1.32
2022-11-06T02:54:29.958Z,1.43
2022-11-06T02:55:47.066Z,1.25
2022-11-06T02:56:55.120Z,1.49
2022-11-06T02:58:03.387Z,1.39
2022-11-06T02:59:12.106Z,1.47
2022-11-06T03:00:17.225Z,1.51
2022-11-06T03:01:29.832Z,1.42
2022-11-06T03:02:40.972Z,1.31
2022-11-06T03:03:48.311Z,1.31
2022-11-06T03:05:00.789Z,1.34
2022-11-06T03:06:07.117Z,1.44
2022-11-06T03:07:16.892Z,1.34
2022-11-06T03:08:50.166Z,1.33
2022-11-06T03:09:53.683Z,1.42
2022-11-06T03:11:09.221Z,1.48
2022-11-06T03:12:31.028Z,1.43
2022-11-06T03:14:19.972Z,1.49
2022-11-06T03:15:30.681Z,1.39
2022-11-06T03:16:39.065Z,1.56
2022-11-06T03:17:55.163Z,1.66
2022-11-06T03:19:02.622Z,1.60
2022-11-06T03:20:30.219Z,1.63
2022-11-06T03:22:26.706Z,1.49
2022-11-06T03:23:36.227Z,1.57
2022-11-06T03:24:44.028Z,1.24
2022-11-06T03:26:12.181Z,1.41
2022-11-06T03:27:32.385Z,1.31
2022-11-06T03:28:39.272Z,1.38
2022-11-06T03:29:49.710Z,1.15
2022-11-06T03:30:58.877Z,1.18
2022-11-06T03:32:19.526Z,1.03
2022-11-06T03:33:52.833Z,1.12
2022-11-06T03:35:04.131Z,1.33
2022-11-06T03:36:13.899Z,1.31
2022-11-06T03:37:25.310Z,1.30
2022-11-06T03:38:42.591Z,1.22
2022-11-06T03:39:56.462Z,1.24
2022-11-06T03:41:14.380Z,1.30
2022-11-06T03:42:23.390Z,1.39
2022-11-06T03:43:30.658Z,1.39
2022-11-06T03:44:40.956Z,1.40
2022-11-06T03:45:45.059Z,1.42
2022-11-06T03:46:51.236Z,1.36
2022-11-06T03:48:09.899Z,1.38
2022-11-06T03:49:19.078Z,1.44
2022-11-06T03:50:47.134Z,1.27
2022-11-06T03:51:59.083Z,1.34
2022-11-06T03:53:09.945Z,1.32
2022-11-06T03:54:18.053Z,1.33
2022-11-06T03:55:27.266Z,1.44
2022-11-06T03:56:38.622Z,1.28
2022-11-06T03:58:06.813Z,1.07
2022-11-06T03:59:11.000Z,1.13
2022-11-06T04:00:17.328Z,1.19
2022-11-06T04:01:30.112Z,1.27
2022-11-06T04:02:36.973Z,1.22
2022-11-06T04:03:45.571Z,1.31
2022-11-06T04:05:09.063Z,1.32
2022-11-06T04:06:24.116Z,1.32
2022-11-06T04:07:34.840Z,1.30
2022-11-06T04:08:57.654Z,1.22
2022-11-06T04:10:26.310Z,1.14
2022-11-06T04:11:50.774Z,1.26
2022-11-06T04:13:28.025Z,1.30
2022-11-06T04:14:33.067Z,1.35
2022-11-06T04:15:43.070Z,1.34
2022-11-06T04:16:52.177Z,1.40
2022-11-06T04:17:55.465Z,1.32
2022-11-06T04:18:58.497Z,1.39
2022-11-06T04:20:11.878Z,1.43
2022-11-06T04:21:45.846Z,1.38
2022-11-06T04:22:59.802Z,1.52
2022-11-06T04:24:32.737Z,1.32
2022-11-06T04:26:21.037Z,1.38
2022-11-06T04:28:00.253Z,1.26
2022-11-06T04:29:08.098Z,1.24
2022-11-06T04:30:32.285Z,1.12
2022-11-06T04:32:10.566Z,1.13
2022-11-06T04:33:24.237Z,1.16
2022-11-06T04:34:43.454Z,1.23
2022-11-06T04:36:04.641Z,1.28
2022-11-06T04:37:21.428Z,1.35
2022-11-06T04:38:42.506Z,1.39
2022-11-06T04:40:05.794Z,1.41
2022-11-06T04:41:35.040Z,1.39
2022-11-06T04:42:51.977Z,1.39
2022-11-06T04:43:59.948Z,1.23
2022-11-06T04:45:08.115Z,1.42
2022-11-06T04:46:16.537Z,1.38
2022-11-06T04:47:23.048Z,1.39
2022-11-06T04:48:27.186Z,1.53
2022-11-06T04:49:33.034Z,1.60
2022-11-06T04:50:48.322Z,1.42
2022-11-06T04:51:52.841Z,1.39
2022-11-06T04:52:58.287Z,1.43
2022-11-06T04:54:00.784Z,1.47
2022-11-06T04:55:03.243Z,1.25
2022-11-06T04:56:21.277Z,1.35
2022-11-06T04:57:25.146Z,1.15
2022-11-06T04:58:27.401Z,1.19
2022-11-06T04:59:33.514Z,1.38
2022-11-06T05:00:36.185Z,1.29
2022-11-06T05:01:38.848Z,1.31
2022-11-06T05:02:42.108Z,1.21
2022-11-06T05:03:44.117Z,1.22
2022-11-06T05:04:47.394Z,1.30
2022-11-06T05:05:49.502Z,1.37
2022-11-06T05:06:51.587Z,1.11
2022-11-06T05:07:53.540Z,1.16
2022-11-06T05:08:55.805Z,1.21
2022-11-06T05:09:58.815Z,1.29
2022-11-06T05:11:00.854Z,1.18
2022-11-06T05:12:04.783Z,1.23
2022-11-06T05:13:07.121Z,1.34
2022-11-06T05:14:09.146Z,1.41
2022-11-06T05:15:11.217Z,1.23
2022-11-06T05:16:14.549Z,1.36
2022-11-06T05:17:16.579Z,1.29
2022-11-06T05:18:19.221Z,1.38
2022-11-06T05:19:22.327Z,1.46
2022-11-06T05:20:24.905Z,1.51
2022-11-06T05:21:45.050Z,1.34
2022-11-06T05:23:01.561Z,1.45
2022-11-06T05:24:05.240Z,1.52
2022-11-06T05:25:08.331Z,1.42
2022-11-06T05:26:10.450Z,1.44
2022-11-06T05:27:13.680Z,1.34
2022-11-06T05:28:15.986Z,1.42
2022-11-06T05:29:18.175Z,1.16
2022-11-06T05:30:21.818Z,1.13
2022-11-06T05:31:26.245Z,1.13
2022-11-06T05:32:30.908Z,1.20
2022-11-06T05:33:33.535Z,1.20
2022-11-06T05:34:35.826Z,1.22
2022-11-06T05:35:37.905Z,1.43
2022-11-06T05:36:57.580Z,1.42
2022-11-06T05:38:01.027Z,1.34
2022-11-06T05:39:03.602Z,1.36
2022-11-06T05:40:08.418Z,1.34
2022-11-06T05:41:11.530Z,1.37
2022-11-06T05:42:13.691Z,1.19
2022-11-06T05:43:16.380Z,1.04
2022-11-06T05:44:18.513Z,1.30
2022-11-06T05:45:21.689Z,1.12
2022-11-06T05:46:47.233Z,1.09
2022-11-06T05:47:46.089Z,0.93
2022-11-06T05:48:48.034Z,1.08
2022-11-06T05:49:54.828Z,1.08
2022-11-06T05:51:03.381Z,1.07
2022-11-06T05:52:05.858Z,1.25
2022-11-06T05:53:07.828Z,1.28
2022-11-06T05:54:09.872Z,1.33
2022-11-06T05:55:15.022Z,1.31
2022-11-06T05:56:18.661Z,1.30
2022-11-06T05:57:21.990Z,1.05
2022-11-06T05:58:24.356Z,1.02
2022-11-06T05:59:26.886Z,1.25
2022-11-06T06:00:29.009Z,1.26
2022-11-06T06:01:31.480Z,1.32
2022-11-06T06:02:35.333Z,1.21
2022-11-06T06:03:40.457Z,1.28
2022-11-06T06:04:42.401Z,1.15
2022-11-06T06:05:44.433Z,1.17
2022-11-06T06:06:50.328Z,1.29
2022-11-06T06:07:52.344Z,1.25
2022-11-06T06:08:54.382Z,1.25
2022-11-06T06:09:56.439Z,1.43
2022-11-06T06:10:59.597Z,1.54
2022-11-06T06:12:01.647Z,1.59
2022-11-06T06:13:04.935Z,1.44
2022-11-06T06:14:07.003Z,1.54
2022-11-06T06:15:11.509Z,1.48
2022-11-06T06:16:13.500Z,1.49
2022-11-06T06:17:15.673Z,1.45
2022-11-06T06:18:20.301Z,1.58
2022-11-06T06:19:22.240Z,1.67
2022-11-06T06:20:24.360Z,1.42
2022-11-06T06:21:26.315Z,1.58
2022-11-06T06:22:46.881Z,1.53
2022-11-06T06:23:50.890Z,1.66
2022-11-06T06:24:59.095Z,1.67
2022-11-06T06:26:01.243Z,1.68
2022-11-06T06:27:03.965Z,1.21
2022-11-06T06:28:06.059Z,1.19
2022-11-06T06:29:09.638Z,1.06
2022-11-06T06:30:12.141Z,1.07
2022-11-06T06:31:14.218Z,1.09
2022-11-06T06:32:16.871Z,1.14
2022-11-06T06:33:20.330Z,1.28
2022-11-06T06:34:22.525Z,1.26
2022-11-06T06:35:24.622Z,1.33
2022-11-06T06:36:29.976Z,1.30
2022-11-06T06:37:35.004Z,1.43
2022-11-06T06:38:43.436Z,1.46
2022-11-06T06:39:45.785Z,1.17
2022-11-06T06:40:48.862Z,1.28
2022-11-06T06:41:51.500Z,1.54
2022-11-06T06:42:57.388Z,1.52
2022-11-06T06:44:00.066Z,1.54
2022-11-06T06:45:03.690Z,1.32
2022-11-06T06:46:07.747Z,1.24
2022-11-06T06:47:10.285Z,1.39
2022-11-06T06:48:13.597Z,1.42
2022-11-06T06:49:15.985Z,1.39
2022-11-06T06:50:18.145Z,1.53
2022-11-06T06:51:23.943Z,1.70
2022-11-06T06:52:26.269Z,1.72
2022-11-06T06:53:29.441Z,1.69
2022-11-06T06:54:32.283Z,1.76
2022-11-06T06:55:34.276Z,1.88
2022-11-06T06:56:36.526Z,2.07
2022-11-06T06:57:39.678Z,2.12
2022-11-06T06:58:41.725Z,2.22
2022-11-06T06:59:43.662Z,2.08
2022-11-06T07:00:46.609Z,1.83
2022-11-06T07:01:49.994Z,1.70
2022-11-06T07:02:52.983Z,1.72
2022-11-06T07:03:57.619Z,1.63
2022-11-06T07:05:03.724Z,1.56
2022-11-06T07:06:06.737Z,1.79
2022-11-06T07:07:08.683Z,1.82
2022-11-06T07:08:10.895Z,1.88
2022-11-06T07:09:17.119Z,1.62
2022-11-06T07:10:19.908Z,1.70
2022-11-06T07:11:22.312Z,1.71
2022-11-06T07:12:24.345Z,1.57
2022-11-06T07:13:28.327Z,1.54
2022-11-06T07:14:32.372Z,1.50
2022-11-06T07:15:40.408Z,1.55
2022-11-06T07:16:44.111Z,1.49
2022-11-06T07:17:46.800Z,1.79
2022-11-06T07:18:49.065Z,1.68
2022-11-06T07:19:51.034Z,1.74
2022-11-06T07:20:56.345Z,1.64
2022-11-06T07:21:58.451Z,1.72
2022-11-06T07:23:05.723Z,1.47
2022-11-06T07:24:07.907Z,1.60
2022-11-06T07:25:09.957Z,1.49
2022-11-06T07:26:12.244Z,1.38
2022-11-06T07:27:16.410Z,1.55
2022-11-06T07:28:18.681Z,1.56
2022-11-06T07:29:21.533Z,1.60
2022-11-06T07:30:23.522Z,1.58
2022-11-06T07:31:28.228Z,1.68
2022-11-06T07:32:30.418Z,1.60
2022-11-06T07:33:34.184Z,1.68
2022-11-06T07:34:38.985Z,1.63
2022-11-06T07:35:42.190Z,1.66
2022-11-06T07:36:44.255Z,1.73
2022-11-06T07:37:46.317Z,1.69
2022-11-06T07:38:48.905Z,1.75
2022-11-06T07:39:51.047Z,1.74
2022-11-06T07:40:53.007Z,1.77
2022-11-06T07:41:55.013Z,1.67
2022-11-06T07:43:03.842Z,1.71
2022-11-06T07:44:05.916Z,1.63
2022-11-06T07:45:08.590Z,1.70
2022-11-06T07:46:12.513Z,1.77
2022-11-06T07:47:14.455Z,1.75
2022-11-06T07:48:16.765Z,1.77
2022-11-06T07:49:18.833Z,1.81
2022-11-06T07:50:23.458Z,1.92
2022-11-06T07:51:26.668Z,1.74
2022-11-06T07:52:31.645Z,1.71
2022-11-06T07:53:33.695Z,1.75
2022-11-06T07:54:35.627Z,1.75
2022-11-06T07:55:42.027Z,1.78
2022-11-06T07:56:44.341Z,1.88
2022-11-06T07:57:54.154Z,1.72
2022-11-06T07:58:56.223Z,1.57
2022-11-06T07:59:58.202Z,1.52
2022-11-06T08:01:00.483Z,1.61
2022-11-06T08:02:02.734Z,1.77
2022-11-06T08:03:04.941Z,1.74
2022-11-06T08:04:07.004Z,1.39
2022-11-06T08:05:09.231Z,1.54
2022-11-06T08:06:11.724Z,1.53
2022-11-06T08:07:13.732Z,1.61
2022-11-06T08:08:18.514Z,1.39
2022-11-06T08:09:20.613Z,1.51
2022-11-06T08:10:24.794Z,1.54
2022-11-06T08:11:27.850Z,1.43
2022-11-06T08:12:29.826Z,1.41
2022-11-06T08:13:36.295Z,1.54
2022-11-06T08:14:41.368Z,1.48
2022-11-06T08:15:44.596Z,1.71
2022-11-06T08:16:49.469Z,1.63
2022-11-06T08:17:52.201Z,1.63
2022-11-06T08:18:54.302Z,1.68
2022-11-06T08:19:56.607Z,1.62
2022-11-06T08:20:59.647Z,1.67
2022-11-06T08:22:05.003Z,1.93
2022-11-06T08:23:11.529Z,2.00
2022-11-06T08:24:16.463Z,1.92
2022-11-06T08:25:22.729Z,1.81
2022-11-06T08:26:27.888Z,1.78
2022-11-06T08:27:29.832Z,1.71
2022-11-06T08:28:31.810Z,1.62
2022-11-06T08:29:37.084Z,1.86
2022-11-06T08:30:44.240Z,1.89
2022-11-06T08:31:46.278Z,1.76
2022-11-06T08:32:48.334Z,1.70
2022-11-06T08:33:51.076Z,1.90
2022-11-06T08:34:56.292Z,1.73
2022-11-06T08:36:05.381Z,1.60
2022-11-06T08:37:07.337Z,1.73
2022-11-06T08:38:09.418Z,1.79
2022-11-06T08:39:14.652Z,1.75
2022-11-06T08:40:16.889Z,1.96
2022-11-06T08:41:21.146Z,2.04
2022-11-06T08:42:23.376Z,1.95
2022-11-06T08:43:26.733Z,1.75
2022-11-06T08:44:31.090Z,1.93
2022-11-06T08:45:36.420Z,1.92
2022-11-06T08:46:38.353Z,2.10
2022-11-06T08:47:40.330Z,2.10
2022-11-06T08:48:42.368Z,1.95
2022-11-06T08:49:44.358Z,1.73
2022-11-06T08:50:46.522Z,1.79
2022-11-06T08:51:48.584Z,1.79
2022-11-06T08:52:50.535Z,1.87
2022-11-06T08:53:52.569Z,1.79
2022-11-06T08:54:54.525Z,1.71
2022-11-06T08:55:56.498Z,1.95
2022-11-06T08:56:58.691Z,1.89
2022-11-06T08:58:01.097Z,2.00
2022-11-06T08:59:03.170Z,1.94
2022-11-06T09:00:05.652Z,1.83
2022-11-06T09:01:07.745Z,1.72
2022-11-06T09:02:14.049Z,1.72
2022-11-06T09:03:18.201Z,1.80
2022-11-06T09:04:20.488Z,1.56
2022-11-06T09:05:22.439Z,1.64
2022-11-06T09:06:25.627Z,1.71
2022-11-06T09:07:27.726Z,1.71
2022-11-06T09:08:30.779Z,1.67
2022-11-06T09:09:34.104Z,1.75
2022-11-06T09:10:37.783Z,1.72
2022-11-06T09:11:39.882Z,1.61
2022-11-06T09:12:41.861Z,1.65
2022-11-06T09:13:43.771Z,1.67
2022-11-06T09:14:45.665Z,1.56
2022-11-06T09:15:47.907Z,1.73
2022-11-06T09:16:49.878Z,1.87
2022-11-06T09:17:55.711Z,1.92
2022-11-06T09:18:58.270Z,1.89
2022-11-06T09:20:00.268Z,1.72
2022-11-06T09:21:02.378Z,1.74
2022-11-06T09:22:04.372Z,1.96
2022-11-06T09:23:10.060Z,1.97
2022-11-06T09:24:14.354Z,1.92
2022-11-06T09:25:24.534Z,2.01
2022-11-06T09:26:26.673Z,2.03
2022-11-06T09:27:29.298Z,2.01
2022-11-06T09:28:31.267Z,1.98
2022-11-06T09:29:33.177Z,2.11
2022-11-06T09:30:35.168Z,2.07
2022-11-06T09:31:38.221Z,1.89
2022-11-06T09:32:53.326Z,1.92
2022-11-06T09:33:56.014Z,2.07
2022-11-06T09:34:58.943Z,1.95
2022-11-06T09:36:04.884Z,1.75
2022-11-06T09:37:06.976Z,1.78
2022-11-06T09:38:12.439Z,1.85
2022-11-06T09:39:14.587Z,1.72
2022-11-06T09:40:22.146Z,1.91
2022-11-06T09:41:54.515Z,1.81
2022-11-06T09:44:02.939Z,1.89
2022-11-06T09:45:08.087Z,2.05
2022-11-06T09:46:21.343Z,1.99
2022-11-06T09:47:30.697Z,1.83
2022-11-06T09:48:41.932Z,1.98
2022-11-06T09:49:53.949Z,1.89
2022-11-06T09:51:02.604Z,2.06
2022-11-06T09:52:28.253Z,1.82
2022-11-06T09:53:37.438Z,1.56
2022-11-06T09:54:56.141Z,1.66
2022-11-06T09:56:02.802Z,1.55
2022-11-06T09:57:13.574Z,1.75
2022-11-06T09:58:23.720Z,1.49
2022-11-06T09:59:26.411Z,1.66
2022-11-06T10:00:28.668Z,1.82
2022-11-06T10:01:50.802Z,1.61
2022-11-06T10:03:04.693Z,1.70
2022-11-06T10:04:13.024Z,1.76
2022-11-06T10:05:23.282Z,1.70
2022-11-06T10:06:27.684Z,1.74
2022-11-06T10:07:33.904Z,1.80
2022-11-06T10:08:38.723Z,1.74
2022-11-06T10:09:42.295Z,1.66
2022-11-06T10:11:04.126Z,1.81
2022-11-06T10:12:28.996Z,2.04
2022-11-06T10:13:55.330Z,1.82
2022-11-06T10:15:17.704Z,1.75
2022-11-06T10:16:55.031Z,1.87
2022-11-06T10:18:27.770Z,1.91
2022-11-06T10:19:46.813Z,1.93
2022-11-06T10:20:53.277Z,1.94
2022-11-06T10:22:07.411Z,1.91
2022-11-06T10:23:32.849Z,2.03
2022-11-06T10:24:44.390Z,1.80
2022-11-06T10:26:13.208Z,1.84
2022-11-06T10:27:17.068Z,2.02
2022-11-06T10:28:38.931Z,2.12
2022-11-06T10:29:55.901Z,1.95
2022-11-06T10:31:06.441Z,1.92
2022-11-06T10:32:29.575Z,1.71
2022-11-06T10:33:57.456Z,1.50
2022-11-06T10:35:08.628Z,1.41
2022-11-06T10:36:17.393Z,1.41
2022-11-06T10:37:29.957Z,1.41
2022-11-06T10:38:38.383Z,1.40
2022-11-06T10:39:41.949Z,1.49
2022-11-06T10:40:49.066Z,1.67
2022-11-06T10:42:18.750Z,1.59
2022-11-06T10:43:35.726Z,1.80
2022-11-06T10:44:43.549Z,2.00
2022-11-06T10:45:50.623Z,2.11
2022-11-06T10:47:20.466Z,2.10
2022-11-06T10:48:41.331Z,2.35
2022-11-06T10:49:53.965Z,2.21
2022-11-06T10:51:07.749Z,2.21
2022-11-06T10:52:39.953Z,2.21
2022-11-06T10:54:19.506Z,1.93
2022-11-06T10:55:31.028Z,2.13
2022-11-06T10:56:54.398Z,2.03
2022-11-06T10:57:56.349Z,1.75
2022-11-06T10:58:58.823Z,1.87
2022-11-06T11:00:00.909Z,1.95
2022-11-06T11:01:06.400Z,2.01
2022-11-06T11:02:23.913Z,2.00
2022-11-06T11:03:34.506Z,2.12
2022-11-06T11:04:36.419Z,2.09
2022-11-06T11:05:43.960Z,2.07
2022-11-06T11:06:47.078Z,2.03
2022-11-06T11:07:50.337Z,2.09
2022-11-06T11:08:52.664Z,2.06
2022-11-06T11:09:54.888Z,2.16
2022-11-06T11:11:05.450Z,2.06
2022-11-06T11:12:31.367Z,1.92
2022-11-06T11:13:34.310Z,2.01
2022-11-06T11:14:36.283Z,2.08
2022-11-06T11:15:46.069Z,1.99
2022-11-06T11:16:48.596Z,1.86
2022-11-06T11:18:09.298Z,1.65
2022-11-06T11:19:38.270Z,1.57
2022-11-06T11:20:42.864Z,1.79
2022-11-06T11:21:59.579Z,1.46
2022-11-06T11:23:19.106Z,1.65
2022-11-06T11:24:21.413Z,1.74
2022-11-06T11:25:27.282Z,1.72
2022-11-06T11:26:31.042Z,1.63
2022-11-06T11:27:44.080Z,1.87
2022-11-06T11:28:56.040Z,2.01
2022-11-06T11:29:58.526Z,2.13
2022-11-06T11:31:12.038Z,2.04
2022-11-06T11:32:16.230Z,2.00
2022-11-06T11:33:20.815Z,2.07
2022-11-06T11:34:27.238Z,2.20
2022-11-06T11:35:31.211Z,2.16
2022-11-06T11:36:51.917Z,2.10
2022-11-06T11:38:07.225Z,2.00
2022-11-06T11:39:09.353Z,2.04
2022-11-06T11:40:36.639Z,2.00
2022-11-06T11:41:38.882Z,2.08
2022-11-06T11:42:41.061Z,2.11
2022-11-06T11:43:43.219Z,2.02
2022-11-06T11:44:45.417Z,2.08
2022-11-06T11:46:09.763Z,2.21
2022-11-06T11:47:23.777Z,2.28
2022-11-06T11:48:26.227Z,2.17
2022-11-06T11:49:34.881Z,1.96
2022-11-06T11:50:36.848Z,2.04
2022-11-06T11:51:43.411Z,1.96
2022-11-06T11:52:48.625Z,1.86
2022-11-06T11:53:51.799Z,2.09
2022-11-06T11:54:54.552Z,2.10
2022-11-06T11:55:57.104Z,2.14
2022-11-06T11:57:05.120Z,2.29
2022-11-06T11:58:28.310Z,2.11
2022-11-06T11:59:42.071Z,2.00
2022-11-06T12:00:55.073Z,2.11
2022-11-06T12:02:23.555Z,2.27
2022-11-06T12:03:34.263Z,2.36
2022-11-06T12:04:41.432Z,2.25
2022-11-06T12:05:43.507Z,2.45
2022-11-06T12:07:00.522Z,2.25
2022-11-06T12:08:05.306Z,2.22
2022-11-06T12:09:08.416Z,2.04
2022-11-06T12:10:21.978Z,2.10
2022-11-06T12:11:29.073Z,2.09
2022-11-06T12:12:33.533Z,2.03
2022-11-06T12:13:35.706Z,1.97
2022-11-06T12:14:37.994Z,1.88
2022-11-06T12:16:04.822Z,1.97
2022-11-06T12:17:19.535Z,2.06
2022-11-06T12:18:27.302Z,2.07
2022-11-06T12:19:32.056Z,2.10
2022-11-06T12:20:56.293Z,1.89
2022-11-06T12:22:06.090Z,1.84
2022-11-06T12:23:23.939Z,2.02
2022-11-06T12:24:48.661Z,2.13
2022-11-06T12:26:03.050Z,2.09
2022-11-06T12:27:33.626Z,1.96
2022-11-06T12:28:40.565Z,2.03
2022-11-06T12:29:57.000Z,1.83
2022-11-06T12:31:06.409Z,1.84
2022-11-06T12:32:17.172Z,1.88
2022-11-06T12:33:59.589Z,1.86
2022-11-06T12:34:52.902Z,1.73
2022-11-06T12:36:18.207Z,1.86
2022-11-06T12:37:35.314Z,1.79
2022-11-06T12:38:53.783Z,1.73
2022-11-06T12:40:18.435Z,1.83
2022-11-06T12:41:30.142Z,1.75
2022-11-06T12:42:35.454Z,1.67
2022-11-06T12:43:47.715Z,1.73
2022-11-06T12:44:49.936Z,1.64
2022-11-06T12:46:19.822Z,1.72
2022-11-06T12:47:57.525Z,1.88
2022-11-06T12:49:18.573Z,1.71
2022-11-06T12:50:31.409Z,1.80
2022-11-06T12:51:49.978Z,1.66
2022-11-06T12:53:06.477Z,1.74
2022-11-06T12:54:15.884Z,1.61
2022-11-06T12:55:34.316Z,1.75
2022-11-06T12:57:02.585Z,1.73
2022-11-06T12:58:11.483Z,1.78
2022-11-06T13:00:02.706Z,1.65
2022-11-06T13:01:31.820Z,1.80
2022-11-06T13:02:39.707Z,1.70
2022-11-06T13:04:13.786Z,1.73
2022-11-06T13:05:44.449Z,1.70
2022-11-06T13:07:08.345Z,1.68
2022-11-06T13:08:16.054Z,1.70
2022-11-06T13:09:23.183Z,1.62
2022-11-06T13:10:37.619Z,1.67
2022-11-06T13:11:57.119Z,1.67
2022-11-06T13:13:27.697Z,1.60
2022-11-06T13:14:45.319Z,1.64
2022-11-06T13:18:50.369Z,1.43
2022-11-06T13:20:01.439Z,1.31
2022-11-06T13:21:10.492Z,1.36
2022-11-06T13:22:43.788Z,1.35
2022-11-06T13:24:10.428Z,1.55
2022-11-06T13:25:21.414Z,1.51
2022-11-06T13:26:32.880Z,1.54
2022-11-06T13:27:42.945Z,1.54
2022-11-06T13:28:48.626Z,1.44
2022-11-06T13:29:52.002Z,1.53
2022-11-06T13:31:02.214Z,1.62
2022-11-06T13:32:14.658Z,1.46
2022-11-06T13:33:23.199Z,1.68
2022-11-06T13:34:29.280Z,1.75
2022-11-06T13:35:33.335Z,1.80
2022-11-06T13:36:37.682Z,1.75
2022-11-06T13:37:43.740Z,1.75
2022-11-06T13:38:56.313Z,1.74
2022-11-06T13:40:28.641Z,1.77
2022-11-06T13:41:32.271Z,1.68
2022-11-06T13:42:47.032Z,1.74
2022-11-06T13:44:04.785Z,1.79
2022-11-06T13:45:19.434Z,1.85
2022-11-06T13:46:31.816Z,1.93
2022-11-06T13:47:48.012Z,1.95
2022-11-06T13:49:06.769Z,1.90
2022-11-06T13:50:43.947Z,1.81
2022-11-06T13:52:07.060Z,1.76
2022-11-06T13:53:38.251Z,1.65
2022-11-06T13:55:01.034Z,1.74
2022-11-06T13:56:14.303Z,1.71
2022-11-06T13:57:43.709Z,1.77
2022-11-06T13:59:23.957Z,1.92
2022-11-06T14:00:48.022Z,1.79
2022-11-06T14:02:12.925Z,1.83
2022-11-06T14:03:50.175Z,1.68
2022-11-06T14:05:21.243Z,1.85
2022-11-06T14:06:26.800Z,1.81
2022-11-06T14:07:31.407Z,1.75
2022-11-06T14:08:48.023Z,1.68
2022-11-06T14:09:50.225Z,1.67
2022-11-06T14:11:20.832Z,1.67
2022-11-06T14:12:23.737Z,1.71
2022-11-06T14:13:32.088Z,1.64
2022-11-06T14:14:34.910Z,1.77
2022-11-06T14:15:42.029Z,1.64
2022-11-06T14:16:45.137Z,1.71
2022-11-06T14:17:56.548Z,1.80
2022-11-06T14:19:07.082Z,1.70
2022-11-06T14:20:38.364Z,1.83
2022-11-06T14:21:40.381Z,1.75
2022-11-06T14:22:44.651Z,1.74
2022-11-06T14:23:50.999Z,1.72
2022-11-06T14:24:58.419Z,1.67
2022-11-06T14:26:08.715Z,1.71
2022-11-06T14:27:24.823Z,1.58
2022-11-06T14:28:38.522Z,1.59
2022-11-06T14:29:55.327Z,1.70
2022-11-06T14:31:22.587Z,1.58
2022-11-06T14:32:23.879Z,1.77
2022-11-06T14:33:43.892Z,1.72
2022-11-06T14:34:45.968Z,1.74
2022-11-06T14:35:50.602Z,1.77
2022-11-06T14:36:52.863Z,1.76
2022-11-06T14:38:18.220Z,1.80
2022-11-06T14:39:52.944Z,1.81
2022-11-06T14:40:55.053Z,1.79
2022-11-06T14:42:02.299Z,1.70
2022-11-06T14:43:25.364Z,1.75
2022-11-06T14:44:35.402Z,1.63
2022-11-06T14:45:51.650Z,1.74
2022-11-06T14:47:08.248Z,1.78
2022-11-06T14:48:15.578Z,1.79
2022-11-06T14:49:46.515Z,1.83
2022-11-06T14:51:00.838Z,1.88
2022-11-06T14:52:10.334Z,1.86
2022-11-06T14:53:29.961Z,1.85
2022-11-06T14:54:42.629Z,1.97
2022-11-06T14:55:55.654Z,1.84
2022-11-06T14:57:00.987Z,1.97
2022-11-06T14:58:26.118Z,1.92
2022-11-06T14:59:41.374Z,1.87
2022-11-06T15:00:55.198Z,1.97
2022-11-06T15:02:26.526Z,2.02
2022-11-06T15:03:43.290Z,2.01
2022-11-06T15:05:02.885Z,1.99
2022-11-06T15:06:20.491Z,1.83
2022-11-06T15:08:11.148Z,1.64
2022-11-06T15:09:26.434Z,1.67
2022-11-06T15:10:48.168Z,1.63
2022-11-06T15:12:03.521Z,1.69
2022-11-06T15:13:19.137Z,1.59
2022-11-06T15:14:27.887Z,1.43
2022-11-06T15:15:35.383Z,1.61
2022-11-06T15:16:45.464Z,1.46
2022-11-06T15:17:50.699Z,1.63
2022-11-06T15:18:55.959Z,1.83
2022-11-06T15:20:05.915Z,1.84
2022-11-06T15:21:10.899Z,1.83
2022-11-06T15:22:52.356Z,1.86
2022-11-06T15:24:13.802Z,1.87
2022-11-06T15:25:18.560Z,1.76
2022-11-06T15:26:27.077Z,1.92
2022-11-06T15:27:38.943Z,1.96
2022-11-06T15:29:03.433Z,2.03